Time,TemperatureF,DewpointF,PressureIn,WindDirection,WindDirectionDegrees,WindSpeedMPH,WindSpeedGustMPH,Humidity,HourlyPrecipIn,Conditions,Clouds,dailyrainin,SoftwareType,DateUTC
2013-06-30 00:00:00,82.5,77.9,29.85,ENE,68,5.0,10.0,86,0.00,,,0.00,VWS V14.01,2013-06-30 06:00:00,
2013-06-30 00:30:00,82.2,77.6,29.83,ENE,68,4.0,8.0,86,0.00,,,0.00,VWS V14.01,2013-06-30 06:30:00,
2013-06-30 01:00:00,81.8,77.2,29.82,ENE,68,3.0,10.0,86,0.00,,,0.00,VWS V14.01,2013-06-30 07:00:00,
2013-06-30 01:30:00,82.0,77.1,29.81,ENE,68,4.0,9.0,85,0.00,,,0.00,VWS V14.01,2013-06-30 07:30:00,
2013-06-30 02:00:00,81.7,77.1,29.80,ENE,68,3.0,7.0,86,0.00,,,0.00,VWS V14.01,2013-06-30 08:00:00,
2013-06-30 02:30:00,81.6,77.0,29.79,ENE,68,4.0,8.0,86,0.00,,,0.00,VWS V14.01,2013-06-30 08:30:00,
2013-06-30 03:00:00,81.3,77.1,29.79,NE,45,2.0,7.0,87,0.00,,,0.00,VWS V14.01,2013-06-30 09:00:00,
2013-06-30 03:30:00,81.1,76.9,29.80,ENE,68,1.0,5.0,87,0.00,,,0.00,VWS V14.01,2013-06-30 09:30:00,
2013-06-30 04:00:00,81.3,76.4,29.80,ENE,68,2.0,6.0,85,0.00,,,0.00,VWS V14.01,2013-06-30 10:00:00,
2013-06-30 04:30:00,81.0,75.7,29.81,ENE,68,0.0,2.0,84,0.00,,,0.00,VWS V14.01,2013-06-30 10:30:00,
2013-06-30 05:00:00,81.6,77.4,29.82,ESE,112,1.0,5.0,87,0.00,,,0.00,VWS V14.01,2013-06-30 11:00:00,
2013-06-30 05:30:00,81.4,76.8,29.83,SSE,158,2.0,5.0,86,0.00,,,0.00,VWS V14.01,2013-06-30 11:30:00,
2013-06-30 06:00:00,81.8,76.8,29.83,SSE,158,1.0,4.0,85,0.00,,,0.00,VWS V14.01,2013-06-30 12:00:00,
2013-06-30 06:30:00,81.8,77.2,29.84,SSW,202,0.0,2.0,86,0.00,,,0.00,VWS V14.01,2013-06-30 12:30:00,
2013-06-30 07:00:00,84.6,77.4,29.83,South,180,0.0,1.0,79,0.00,,,0.00,VWS V14.01,2013-06-30 13:00:00,
2013-06-30 07:30:00,85.6,78.0,29.84,SSW,202,1.0,4.0,78,0.00,,,0.00,VWS V14.01,2013-06-30 13:30:00,
2013-06-30 08:00:00,87.9,79.0,29.84,SSW,202,1.0,4.0,75,0.00,,,0.00,VWS V14.01,2013-06-30 14:00:00,
2013-06-30 08:30:00,88.6,78.4,29.85,ESE,112,1.0,3.0,72,0.00,,,0.00,VWS V14.01,2013-06-30 14:30:00,
2013-06-30 09:00:00,86.7,77.8,29.84,SSW,202,1.0,4.0,75,0.00,,,0.00,VWS V14.01,2013-06-30 15:00:00,
2013-06-30 09:30:00,87.7,76.7,29.84,SSW,202,2.0,7.0,70,0.00,,,0.00,VWS V14.01,2013-06-30 15:30:00,
2013-06-30 10:00:00,88.4,77.4,29.84,NW,315,2.0,8.0,70,0.00,,,0.00,VWS V14.01,2013-06-30 16:00:00,
2013-06-30 10:30:00,89.7,77.3,29.83,NW,315,2.0,8.0,67,0.00,,,0.00,VWS V14.01,2013-06-30 16:30:00,
2013-06-30 11:00:00,88.8,77.3,29.83,NW,315,2.0,8.0,69,0.00,,,0.00,VWS V14.01,2013-06-30 17:00:00,
2013-06-30 11:30:00,89.9,77.9,29.83,NW,315,3.0,9.0,68,0.00,,,0.00,VWS V14.01,2013-06-30 17:30:00,
2013-06-30 12:00:00,89.0,77.9,29.83,NW,315,4.0,11.0,70,0.00,,,0.00,VWS V14.01,2013-06-30 18:00:00,
2013-06-30 12:30:00,88.8,79.0,29.82,NW,315,4.0,12.0,73,0.00,,,0.00,VWS V14.01,2013-06-30 18:30:00,
2013-06-30 13:00:00,89.3,79.1,29.81,NW,315,4.0,13.0,72,0.00,,,0.00,VWS V14.01,2013-06-30 19:00:00,
2013-06-30 13:30:00,89.6,78.5,29.80,NW,315,4.0,11.0,70,0.00,,,0.00,VWS V14.01,2013-06-30 19:30:00,
2013-06-30 14:00:00,89.7,78.2,29.79,NW,315,4.0,12.0,69,0.00,,,0.00,VWS V14.01,2013-06-30 20:00:00,
2013-06-30 14:30:00,89.8,78.3,29.79,NW,315,4.0,11.0,69,0.00,,,0.00,VWS V14.01,2013-06-30 20:30:00,
2013-06-30 15:00:00,89.0,78.4,29.79,NW,315,4.0,11.0,71,0.00,,,0.00,VWS V14.01,2013-06-30 21:00:00,
2013-06-30 15:30:00,89.7,77.7,29.78,NW,315,3.0,10.0,68,0.00,,,0.00,VWS V14.01,2013-06-30 21:30:00,
2013-06-30 16:00:00,88.6,78.4,29.78,NE,45,4.0,11.0,72,0.00,,,0.00,VWS V14.01,2013-06-30 22:00:00,
2013-06-30 16:30:00,87.2,76.7,29.79,NE,45,4.0,10.0,71,0.00,,,0.00,VWS V14.01,2013-06-30 22:30:00,
2013-06-30 17:00:00,86.8,77.5,29.80,NNE,22,3.0,10.0,74,0.00,,,0.00,VWS V14.01,2013-06-30 23:00:00,
2013-06-30 17:30:00,80.4,75.1,29.80,NE,45,7.0,18.0,84,0.00,,,0.00,VWS V14.01,2013-06-30 23:30:00,
2013-06-30 18:00:00,79.6,76.8,29.81,ENE,68,2.0,13.0,91,0.13,,,0.13,VWS V14.01,2013-07-01 00:00:00,
2013-06-30 18:30:00,80.0,77.5,29.81,East,90,1.0,6.0,92,0.14,,,0.14,VWS V14.01,2013-07-01 00:30:00,
2013-06-30 19:00:00,80.2,78.0,29.82,ENE,68,0.0,1.0,93,0.14,,,0.14,VWS V14.01,2013-07-01 01:00:00,
2013-06-30 19:30:00,80.5,78.3,29.83,ENE,68,0.0,3.0,93,0.01,,,0.14,VWS V14.01,2013-07-01 01:30:00,
2013-06-30 20:00:00,82.3,78.4,29.83,ENE,68,3.0,10.0,88,0.00,,,0.14,VWS V14.01,2013-07-01 02:00:00,
2013-06-30 20:30:00,81.9,77.7,29.83,ENE,68,3.0,8.0,87,0.00,,,0.14,VWS V14.01,2013-07-01 02:30:00,
2013-06-30 21:00:00,82.3,78.1,29.83,ENE,68,3.0,8.0,87,0.00,,,0.14,VWS V14.01,2013-07-01 03:00:00,
2013-06-30 21:30:00,82.6,78.0,29.84,ENE,68,4.0,9.0,86,0.00,,,0.14,VWS V14.01,2013-07-01 03:30:00,
2013-06-30 22:00:00,82.8,78.9,29.84,ENE,68,3.0,8.0,88,0.00,,,0.14,VWS V14.01,2013-07-01 04:00:00,
2013-06-30 22:30:00,82.6,78.3,29.84,ENE,68,3.0,7.0,87,0.00,,,0.14,VWS V14.01,2013-07-01 04:30:00,
2013-06-30 23:00:00,82.5,78.2,29.84,ENE,68,1.0,6.0,87,0.00,,,0.14,VWS V14.01,2013-07-01 05:00:00,
2013-06-30 23:30:00,82.2,77.9,29.83,ENE,68,1.0,3.0,87,0.00,,,0.14,VWS V14.01,2013-07-01 05:30:00,